createdAt,value
2022-09-02T00:02:02.400Z,6.90
2022-09-02T00:04:33.144Z,6.90
2022-09-02T00:07:04.729Z,6.90
2022-09-02T00:09:34.205Z,6.80
2022-09-02T00:12:09.930Z,6.80
2022-09-02T00:14:40.534Z,6.80
2022-09-02T00:17:16.874Z,6.80
2022-09-02T00:19:55.519Z,6.80
2022-09-02T00:22:25.608Z,6.80
2022-09-02T00:24:54.980Z,6.70
2022-09-02T00:27:24.209Z,6.70
2022-09-02T00:29:53.754Z,6.70
2022-09-02T00:32:23.124Z,6.70
2022-09-02T00:34:53.652Z,6.70
2022-09-02T00:37:23.758Z,6.70
2022-09-02T00:39:54.982Z,6.60
2022-09-02T00:42:25.172Z,6.60
2022-09-02T00:44:55.567Z,6.50
2022-09-02T00:47:24.927Z,6.50
2022-09-02T00:49:58.716Z,6.50
2022-09-02T00:52:32.526Z,6.50
2022-09-02T00:55:04.547Z,6.40
2022-09-02T00:57:39.069Z,6.40
2022-09-02T01:00:11.610Z,6.40
2022-09-02T01:02:43.767Z,6.40
2022-09-02T01:05:17.088Z,6.40
2022-09-02T01:07:54.024Z,6.40
2022-09-02T01:10:25.769Z,6.30
2022-09-02T01:13:17.021Z,6.30
2022-09-02T01:15:50.019Z,6.40
2022-09-02T01:18:22.229Z,6.30
2022-09-02T01:20:52.883Z,6.30
2022-09-02T01:23:23.850Z,6.20
2022-09-02T01:25:54.550Z,6.20
2022-09-02T01:28:23.885Z,6.20
2022-09-02T01:30:55.779Z,6.10
2022-09-02T01:33:26.198Z,6.10
2022-09-02T01:35:55.934Z,6.10
2022-09-02T01:38:29.314Z,6.10
2022-09-02T01:40:59.069Z,6.10
2022-09-02T01:43:30.553Z,6.00
2022-09-02T01:46:01.295Z,6.00
2022-09-02T01:48:31.547Z,5.90
2022-09-02T01:51:05.135Z,5.90
2022-09-02T01:53:37.118Z,5.90
2022-09-02T01:56:06.516Z,5.90
2022-09-02T01:58:35.697Z,5.90
2022-09-02T02:01:05.213Z,5.90
2022-09-02T02:03:36.245Z,5.80
2022-09-02T02:06:12.011Z,5.80
2022-09-02T02:08:43.067Z,5.80
2022-09-02T02:11:12.063Z,5.70
2022-09-02T02:19:13.988Z,5.70
2022-09-02T02:21:43.098Z,5.70
2022-09-02T02:24:13.926Z,5.60
2022-09-02T02:26:43.129Z,5.60
2022-09-02T02:29:12.410Z,5.50
2022-09-02T02:31:42.154Z,5.50
2022-09-02T02:34:11.580Z,5.50
2022-09-02T02:36:41.204Z,5.40
2022-09-02T02:39:11.737Z,5.40
2022-09-02T02:41:44.837Z,5.40
2022-09-02T02:44:14.260Z,5.30
2022-09-02T02:46:43.442Z,5.30
2022-09-02T02:49:12.508Z,5.30
2022-09-02T02:51:41.611Z,5.30
2022-09-02T02:54:11.616Z,5.30
2022-09-02T02:56:42.372Z,5.30
2022-09-02T02:59:11.473Z,5.20
2022-09-02T03:01:41.156Z,5.20
2022-09-02T03:04:10.401Z,5.20
2022-09-02T03:06:39.346Z,5.20
2022-09-02T03:09:27.482Z,5.20
2022-09-02T03:11:58.210Z,5.20
2022-09-02T03:14:27.613Z,5.20
2022-09-02T03:16:56.853Z,5.10
2022-09-02T03:19:25.808Z,5.10
2022-09-02T03:21:55.236Z,5.10
2022-09-02T03:24:25.373Z,5.10
2022-09-02T03:26:54.900Z,5.00
2022-09-02T03:29:25.458Z,5.00
2022-09-02T03:31:54.492Z,5.00
2022-09-02T03:34:25.877Z,5.00
2022-09-02T03:36:54.799Z,5.00
2022-09-02T03:39:23.859Z,5.00
2022-09-02T03:41:53.616Z,4.90
2022-09-02T03:44:23.039Z,4.90
2022-09-02T03:46:53.578Z,5.00
2022-09-02T03:49:22.762Z,5.00
2022-09-02T03:51:51.668Z,5.00
2022-09-02T03:54:20.649Z,5.00
2022-09-02T03:56:49.555Z,5.00
2022-09-02T03:59:18.845Z,5.00
2022-09-02T04:01:47.788Z,5.00
2022-09-02T04:04:22.620Z,5.00
2022-09-02T04:06:51.967Z,5.00
2022-09-02T04:09:21.154Z,5.00
2022-09-02T04:11:50.207Z,5.10
2022-09-02T04:14:19.450Z,5.10
2022-09-02T04:16:48.490Z,5.10
2022-09-02T04:19:19.078Z,5.20
2022-09-02T04:21:48.193Z,5.20
2022-09-02T04:24:17.169Z,5.20
2022-09-02T04:26:46.161Z,5.20
2022-09-02T04:29:15.044Z,5.20
2022-09-02T04:31:45.740Z,5.30
2022-09-02T04:34:14.757Z,5.40
2022-09-02T04:36:45.116Z,5.40
2022-09-02T04:39:14.063Z,5.50
2022-09-02T04:41:42.980Z,5.50
2022-09-02T04:44:11.855Z,5.60
2022-09-02T04:46:40.894Z,5.70
2022-09-02T04:49:10.175Z,5.80
2022-09-02T04:51:39.447Z,5.80
2022-09-02T04:54:09.841Z,5.90
2022-09-02T04:56:39.464Z,6.00
2022-09-02T04:59:09.061Z,6.10
2022-09-02T05:01:38.280Z,6.20
2022-09-02T05:04:09.977Z,6.30
2022-09-02T05:06:44.159Z,6.40
2022-09-02T05:09:15.783Z,6.50
2022-09-02T05:11:44.838Z,6.60
2022-09-02T05:14:14.592Z,6.70
2022-09-02T05:16:43.688Z,6.80
2022-09-02T05:19:14.665Z,6.90
2022-09-02T05:21:44.901Z,7.00
2022-09-02T05:24:15.434Z,7.10
2022-09-02T05:26:45.021Z,7.20
2022-09-02T05:29:15.151Z,7.30
2022-09-02T05:31:44.055Z,7.50
2022-09-02T05:34:12.974Z,7.60
2022-09-02T05:36:41.857Z,7.60
2022-09-02T05:39:11.096Z,7.80
2022-09-02T05:41:41.653Z,7.90
2022-09-02T05:44:10.835Z,8.00
2022-09-02T05:46:39.794Z,8.20
2022-09-02T05:49:09.385Z,8.40
2022-09-02T05:51:44.379Z,8.50
2022-09-02T05:54:16.385Z,8.60
2022-09-02T05:56:48.662Z,8.80
2022-09-02T05:59:18.654Z,8.90
2022-09-02T06:01:47.856Z,9.10
2022-09-02T06:04:17.305Z,9.20
2022-09-02T06:06:46.237Z,9.40
2022-09-02T06:09:17.966Z,9.50
2022-09-02T06:11:49.913Z,9.70
2022-09-02T06:14:20.986Z,9.80
2022-09-02T06:16:50.752Z,10.00
2022-09-02T06:19:20.660Z,10.10
2022-09-02T06:21:50.555Z,10.30
2022-09-02T06:24:19.697Z,10.50
2022-09-02T06:26:50.402Z,10.60
2022-09-02T06:29:26.785Z,10.70
2022-09-02T06:31:56.357Z,10.80
2022-09-02T06:34:27.177Z,10.90
2022-09-02T06:36:57.995Z,11.10
2022-09-02T06:39:29.098Z,11.30
2022-09-02T06:41:59.685Z,11.40
2022-09-02T06:44:29.558Z,11.60
2022-09-02T06:47:03.112Z,11.70
2022-09-02T06:49:32.103Z,11.80
2022-09-02T06:52:01.157Z,11.90
2022-09-02T06:54:30.112Z,12.10
2022-09-02T06:57:00.831Z,12.30
2022-09-02T06:59:29.759Z,12.40
2022-09-02T07:01:58.989Z,12.40
2022-09-02T07:04:45.448Z,12.60
2022-09-02T07:07:14.472Z,12.70
2022-09-02T07:09:43.392Z,12.90
2022-09-02T07:12:15.150Z,13.00
2022-09-02T07:14:45.694Z,13.10
2022-09-02T07:17:18.115Z,13.20
2022-09-02T07:19:47.469Z,13.30
2022-09-02T07:22:18.064Z,13.40
2022-09-02T07:24:47.992Z,13.50
2022-09-02T07:27:20.818Z,13.60
2022-09-02T07:29:50.205Z,13.70
2022-09-02T07:32:19.919Z,13.60
2022-09-02T07:34:48.944Z,13.80
2022-09-02T07:37:17.933Z,14.00
2022-09-02T07:39:47.271Z,14.10
2022-09-02T07:42:18.944Z,14.30
2022-09-02T07:44:47.866Z,14.40
2022-09-02T07:47:16.771Z,14.40
2022-09-02T07:52:34.631Z,14.50
2022-09-02T07:55:03.507Z,14.50
2022-09-02T07:57:34.245Z,14.50
2022-09-02T08:00:03.341Z,14.70
2022-09-02T08:02:32.502Z,14.70
2022-09-02T08:05:01.484Z,14.70
2022-09-02T08:07:30.507Z,14.80
2022-09-02T08:10:01.342Z,15.00
2022-09-02T08:12:30.576Z,15.00
2022-09-02T08:15:01.036Z,15.10
2022-09-02T08:17:29.989Z,15.10
2022-09-02T08:19:58.989Z,15.30
2022-09-02T08:22:28.063Z,15.40
2022-09-02T08:24:57.012Z,15.50
2022-09-02T08:27:27.910Z,15.50
2022-09-02T08:29:57.278Z,15.60
2022-09-02T08:32:27.836Z,15.70
2022-09-02T08:34:57.077Z,15.70
2022-09-02T08:37:26.123Z,15.80
2022-09-02T08:39:55.157Z,15.80
2022-09-02T08:42:28.115Z,16.00
2022-09-02T08:45:02.164Z,16.10
2022-09-02T08:47:35.031Z,16.10
2022-09-02T08:50:08.393Z,16.20
2022-09-02T08:52:42.914Z,16.30
2022-09-02T08:55:16.944Z,16.40
2022-09-02T08:57:47.246Z,16.40
2022-09-02T09:00:18.106Z,16.10
2022-09-02T09:03:01.109Z,16.50
2022-09-02T09:05:40.624Z,16.60
2022-09-02T09:08:21.878Z,16.80
2022-09-02T09:10:59.374Z,16.50
2022-09-02T09:14:08.313Z,16.80
2022-09-02T09:16:51.270Z,17.00
2022-09-02T09:19:35.837Z,17.00
2022-09-02T09:22:05.604Z,17.10
2022-09-02T09:24:45.313Z,16.90
2022-09-02T09:27:22.471Z,17.10
2022-09-02T09:29:52.358Z,17.30
2022-09-02T09:32:27.869Z,17.40
2022-09-02T09:35:02.289Z,17.50
2022-09-02T09:37:36.335Z,17.50
2022-09-02T09:40:28.214Z,17.60
2022-09-02T09:45:36.467Z,17.70
2022-09-02T09:48:28.253Z,17.90
2022-09-02T09:51:16.335Z,17.80
2022-09-02T09:53:45.895Z,17.80
2022-09-02T09:56:32.708Z,17.70
2022-09-02T09:59:10.914Z,17.90
2022-09-02T10:01:39.977Z,18.00
2022-09-02T10:04:42.371Z,18.10
2022-09-02T10:07:02.574Z,18.30
2022-09-02T10:09:34.845Z,17.80
2022-09-02T10:12:05.757Z,18.10
2022-09-02T10:14:37.911Z,18.40
2022-09-02T10:17:23.374Z,18.50
2022-09-02T10:19:57.044Z,18.60
2022-09-02T10:22:59.449Z,18.70
2022-09-02T10:25:35.742Z,18.80
2022-09-02T10:28:15.179Z,18.80
2022-09-02T10:30:54.286Z,18.90
2022-09-02T10:33:34.024Z,19.10
2022-09-02T10:36:12.827Z,19.20
2022-09-02T10:38:48.783Z,19.30
2022-09-02T10:44:30.862Z,19.20
2022-09-02T10:47:05.169Z,19.30
2022-09-02T10:49:59.934Z,19.40
2022-09-02T10:52:55.440Z,19.70
2022-09-02T10:55:38.302Z,20.00
2022-09-02T10:58:13.455Z,20.20
2022-09-02T11:00:48.368Z,20.00
2022-09-02T11:03:23.533Z,20.20
2022-09-02T11:05:55.641Z,20.50
2022-09-02T11:08:34.171Z,20.30
2022-09-02T11:11:10.177Z,20.50
2022-09-02T11:13:44.936Z,20.50
2022-09-02T11:16:20.733Z,20.60
2022-09-02T11:18:58.592Z,20.20
2022-09-02T11:21:49.213Z,19.70
2022-09-02T11:24:23.619Z,20.00
2022-09-02T11:26:59.885Z,20.00
2022-09-02T11:29:38.865Z,19.90
2022-09-02T11:32:17.415Z,20.10
2022-09-02T11:34:49.669Z,19.70
2022-09-02T11:37:31.496Z,19.50
2022-09-02T11:40:23.381Z,19.40
2022-09-02T11:43:15.976Z,19.70
2022-09-02T11:46:20.999Z,19.90
2022-09-02T11:49:14.251Z,20.10
2022-09-02T11:52:05.782Z,20.30
2022-09-02T11:54:38.765Z,20.30
2022-09-02T11:57:08.934Z,20.50
2022-09-02T12:00:20.446Z,20.50
2022-09-02T12:02:53.364Z,20.70
2022-09-02T12:05:46.458Z,20.80
2022-09-02T12:08:55.722Z,20.80
2022-09-02T12:11:43.246Z,21.20
2022-09-02T12:14:34.493Z,21.30
2022-09-02T12:17:05.623Z,21.30
2022-09-02T12:19:48.654Z,21.20
2022-09-02T12:22:29.403Z,21.30
2022-09-02T12:24:59.440Z,21.50
2022-09-02T12:27:31.504Z,21.70
2022-09-02T12:30:01.383Z,22.20
2022-09-02T12:33:13.731Z,22.50
2022-09-02T12:35:58.715Z,22.50
2022-09-02T12:38:33.201Z,22.20
2022-09-02T12:41:23.151Z,22.20
2022-09-02T12:44:28.894Z,22.30
2022-09-02T12:47:05.372Z,22.30
2022-09-02T12:49:49.879Z,22.00
2022-09-02T12:52:45.643Z,21.50
2022-09-02T12:55:27.523Z,21.10
2022-09-02T12:58:07.040Z,20.90
2022-09-02T13:00:46.770Z,20.70
2022-09-02T13:03:45.195Z,20.50
2022-09-02T13:06:26.002Z,20.40
2022-09-02T13:09:31.306Z,20.20
2022-09-02T13:12:45.423Z,20.30
2022-09-02T13:15:24.860Z,20.20
2022-09-02T13:18:26.799Z,20.20
2022-09-02T13:21:27.591Z,20.00
2022-09-02T13:24:44.295Z,20.10
2022-09-02T13:27:51.540Z,20.60
2022-09-02T13:30:22.486Z,21.00
2022-09-02T13:33:01.468Z,21.20
2022-09-02T13:35:30.798Z,21.30
2022-09-02T13:38:02.146Z,21.30
2022-09-02T13:40:35.177Z,20.90
2022-09-02T13:43:06.132Z,20.90
2022-09-02T13:45:37.102Z,20.70
2022-09-02T13:48:12.017Z,20.70
2022-09-02T13:50:47.644Z,20.30
2022-09-02T13:53:53.694Z,20.00
2022-09-02T13:56:17.979Z,19.80
2022-09-02T13:58:49.228Z,19.60
2022-09-02T14:01:25.022Z,19.70
2022-09-02T14:03:56.475Z,19.90
2022-09-02T14:06:29.468Z,20.20
2022-09-02T14:09:00.454Z,20.50
2022-09-02T14:11:34.846Z,20.70
2022-09-02T14:14:04.352Z,20.80
2022-09-02T14:16:35.228Z,20.90
2022-09-02T14:19:09.609Z,20.90
2022-09-02T14:21:39.766Z,21.10
2022-09-02T14:24:14.910Z,21.30
2022-09-02T14:26:47.799Z,21.20
2022-09-02T14:29:19.402Z,21.20
2022-09-02T14:31:49.447Z,21.20
2022-09-02T14:34:35.201Z,21.30
2022-09-02T14:37:23.638Z,21.40
2022-09-02T14:40:12.818Z,21.30
2022-09-02T14:42:57.744Z,21.40
2022-09-02T14:45:29.614Z,21.40
2022-09-02T14:48:01.361Z,21.50
2022-09-02T14:50:33.342Z,21.70
2022-09-02T14:53:07.583Z,21.70
2022-09-02T14:55:52.857Z,21.70
2022-09-02T14:58:24.717Z,21.70
2022-09-02T15:00:57.712Z,21.60
2022-09-02T15:03:27.560Z,21.30
2022-09-02T15:05:57.222Z,21.30
2022-09-02T15:08:26.109Z,21.10
2022-09-02T15:10:56.047Z,21.10
2022-09-02T15:13:32.679Z,21.10
2022-09-02T15:16:02.789Z,21.20
2022-09-02T15:18:32.065Z,21.00
2022-09-02T15:21:01.063Z,21.00
2022-09-02T15:23:32.539Z,21.00
2022-09-02T15:26:03.984Z,20.90
2022-09-02T15:28:34.651Z,20.80
2022-09-02T15:31:04.559Z,20.80
2022-09-02T15:33:33.575Z,20.70
2022-09-02T15:36:08.223Z,20.60
2022-09-02T15:38:38.285Z,20.40
2022-09-02T15:41:15.753Z,20.30
2022-09-02T15:43:48.364Z,20.20
2022-09-02T15:46:20.854Z,19.90
2022-09-02T15:48:50.437Z,19.90
2022-09-02T15:51:21.388Z,19.80
2022-09-02T15:53:56.379Z,19.70
2022-09-02T15:56:27.091Z,19.50
2022-09-02T15:59:01.827Z,19.20
2022-09-02T16:01:33.131Z,19.10
2022-09-02T16:04:03.380Z,19.00
2022-09-02T16:06:33.496Z,18.90
2022-09-02T16:09:02.700Z,18.80
2022-09-02T16:11:31.928Z,18.60
2022-09-02T16:14:02.425Z,18.50
2022-09-02T16:16:32.961Z,18.40
2022-09-02T16:19:02.277Z,18.30
2022-09-02T16:21:31.805Z,18.20
2022-09-02T16:24:00.863Z,18.10
2022-09-02T16:26:31.425Z,17.90
2022-09-02T16:29:03.990Z,17.70
2022-09-02T16:31:34.552Z,17.50
2022-09-02T16:34:05.534Z,17.30
2022-09-02T16:36:37.584Z,17.10
2022-09-02T16:39:07.894Z,16.80
2022-09-02T16:41:38.696Z,16.60
2022-09-02T16:44:10.899Z,16.40
2022-09-02T16:46:42.088Z,16.20
2022-09-02T16:49:12.472Z,15.90
2022-09-02T16:51:42.251Z,15.70
2022-09-02T16:54:17.457Z,15.50
2022-09-02T16:56:50.536Z,15.40
2022-09-02T16:59:20.962Z,15.20
2022-09-02T17:01:49.932Z,15.10
2022-09-02T17:04:19.113Z,14.90
2022-09-02T17:06:48.064Z,14.80
2022-09-02T17:09:17.391Z,14.60
2022-09-02T17:11:46.364Z,14.50
2022-09-02T17:14:16.838Z,14.40
2022-09-02T17:16:49.238Z,14.20
2022-09-02T17:19:22.853Z,14.20
2022-09-02T17:21:53.095Z,14.00
2022-09-02T17:24:24.062Z,14.00
2022-09-02T17:26:56.469Z,13.90
2022-09-02T17:32:19.256Z,13.80
2022-09-02T17:34:48.333Z,13.80
2022-09-02T17:37:17.459Z,13.80
2022-09-02T17:39:47.053Z,13.70
2022-09-02T17:42:15.136Z,13.60
2022-09-02T17:44:44.343Z,13.50
2022-09-02T17:47:15.183Z,13.50
2022-09-02T17:49:45.910Z,13.40
2022-09-02T17:52:16.831Z,13.30
2022-09-02T17:54:47.627Z,13.20
2022-09-02T17:57:26.644Z,13.20
2022-09-02T18:00:07.930Z,13.10
2022-09-02T18:03:20.249Z,13.00
2022-09-02T18:06:09.411Z,12.90
2022-09-02T18:08:46.451Z,12.80
2022-09-02T18:11:15.539Z,12.70
2022-09-02T18:13:58.084Z,12.60
2022-09-02T18:16:37.113Z,12.50
2022-09-02T18:19:16.557Z,12.40
2022-09-02T18:22:00.256Z,12.30
2022-09-02T18:24:45.127Z,12.20
2022-09-02T18:27:21.451Z,12.10
2022-09-02T18:30:03.733Z,12.10
2022-09-02T18:32:48.993Z,12.00
2022-09-02T18:35:27.053Z,11.90
2022-09-02T18:38:08.131Z,11.90
2022-09-02T18:40:44.831Z,11.80
2022-09-02T18:43:21.473Z,11.80
2022-09-02T18:45:52.035Z,11.80
2022-09-02T18:48:24.491Z,11.70
2022-09-02T18:50:58.424Z,11.70
2022-09-02T18:53:33.135Z,11.70
2022-09-02T18:56:07.424Z,11.60
2022-09-02T18:58:41.718Z,11.60
2022-09-02T19:01:18.224Z,11.50
2022-09-02T19:03:47.364Z,11.40
2022-09-02T19:06:21.196Z,11.40
2022-09-02T19:08:58.106Z,11.30
2022-09-02T19:11:27.673Z,11.20
2022-09-02T19:14:01.301Z,11.10
2022-09-02T19:16:34.032Z,10.90
2022-09-02T19:19:03.582Z,10.90
2022-09-02T19:21:37.975Z,10.80
2022-09-02T19:24:12.112Z,10.70
2022-09-02T19:26:43.451Z,10.60
2022-09-02T19:29:14.695Z,10.60
2022-09-02T19:31:46.726Z,10.50
2022-09-02T19:34:17.394Z,10.50
2022-09-02T19:36:49.922Z,10.40
2022-09-02T19:39:20.750Z,10.30
2022-09-02T19:41:50.652Z,10.20
2022-09-02T19:44:20.564Z,10.20
2022-09-02T19:49:39.445Z,10.10
2022-09-02T19:52:08.973Z,10.00
2022-09-02T19:54:39.634Z,10.00
2022-09-02T19:57:08.754Z,10.00
2022-09-02T19:59:37.696Z,9.90
2022-09-02T20:02:07.106Z,9.90
2022-09-02T20:04:36.043Z,9.90
2022-09-02T20:07:04.952Z,9.80
2022-09-02T20:09:33.843Z,9.80
2022-09-02T20:12:05.254Z,9.70
2022-09-02T20:14:35.934Z,9.70
2022-09-02T20:17:07.475Z,9.70
2022-09-02T20:19:36.443Z,9.60
2022-09-02T20:22:06.490Z,9.60
2022-09-02T20:24:36.161Z,9.50
2022-09-02T20:27:16.284Z,9.60
2022-09-02T20:30:09.186Z,9.50
2022-09-02T20:32:45.613Z,9.40
2022-09-02T20:35:33.405Z,9.40
2022-09-02T20:38:18.896Z,9.30
2022-09-02T20:40:55.413Z,9.30
2022-09-02T20:43:49.222Z,9.30
2022-09-02T20:46:36.167Z,9.30
2022-09-02T20:49:27.181Z,9.40
2022-09-02T20:52:02.682Z,9.40
2022-09-02T20:54:40.730Z,9.50
2022-09-02T20:57:22.501Z,9.50
2022-09-02T21:00:04.451Z,9.60
2022-09-02T21:02:37.022Z,9.80
2022-09-02T21:05:12.942Z,9.80
2022-09-02T21:07:45.793Z,9.90
2022-09-02T21:10:21.060Z,9.90
2022-09-02T21:12:54.412Z,9.90
2022-09-02T21:15:30.312Z,9.80
2022-09-02T21:18:05.364Z,9.80
2022-09-02T21:20:44.449Z,9.70
2022-09-02T21:23:20.891Z,9.60
2022-09-02T21:25:56.369Z,9.50
2022-09-02T21:28:34.102Z,9.40
2022-09-02T21:31:09.844Z,9.40
2022-09-02T21:33:38.910Z,9.30
2022-09-02T21:36:08.340Z,9.30
2022-09-02T21:38:41.363Z,9.40
2022-09-02T21:41:30.523Z,9.40
2022-09-02T21:44:09.742Z,9.60
2022-09-02T21:46:58.589Z,9.60
2022-09-02T21:49:42.038Z,9.60
2022-09-02T21:52:18.689Z,9.80
2022-09-02T21:55:01.279Z,9.90
2022-09-02T21:57:49.301Z,10.10
2022-09-02T22:00:19.830Z,10.10
2022-09-02T22:02:58.617Z,10.20
2022-09-02T22:05:38.220Z,10.30
2022-09-02T22:08:14.563Z,10.30
2022-09-02T22:10:51.620Z,10.20
2022-09-02T22:13:22.619Z,10.30
2022-09-02T22:16:00.851Z,10.30
2022-09-02T22:18:39.861Z,10.30
2022-09-02T22:21:20.000Z,10.30
2022-09-02T22:23:53.310Z,10.40
2022-09-02T22:26:41.549Z,10.40
2022-09-02T22:29:18.752Z,10.40
2022-09-02T22:31:51.344Z,10.50
2022-09-02T22:34:24.032Z,10.60
2022-09-02T22:37:08.131Z,10.60
2022-09-02T22:39:44.428Z,10.60
2022-09-02T22:42:22.060Z,10.60
2022-09-02T22:45:14.613Z,10.60
2022-09-02T22:48:07.269Z,10.60
2022-09-02T22:50:59.858Z,10.60
2022-09-02T22:53:31.326Z,10.60
2022-09-02T22:56:03.226Z,10.70
2022-09-02T22:58:58.048Z,10.70
2022-09-02T23:01:34.552Z,10.80
2022-09-02T23:04:21.268Z,10.80
2022-09-02T23:07:02.188Z,10.80
2022-09-02T23:09:32.788Z,10.80
2022-09-02T23:12:09.987Z,10.80
2022-09-02T23:14:50.127Z,10.80
2022-09-02T23:17:34.626Z,10.90
2022-09-02T23:20:23.996Z,10.90
2022-09-02T23:23:11.827Z,11.00
2022-09-02T23:26:10.269Z,11.00
2022-09-02T23:28:55.307Z,10.90
2022-09-02T23:31:32.293Z,10.90
2022-09-02T23:34:12.546Z,10.90
2022-09-02T23:36:52.742Z,10.90
2022-09-02T23:39:44.871Z,10.90
2022-09-02T23:42:14.467Z,10.90
2022-09-02T23:44:43.715Z,11.00
2022-09-02T23:47:29.293Z,11.00
2022-09-02T23:50:12.988Z,11.00
2022-09-02T23:52:47.983Z,11.10
2022-09-02T23:55:25.494Z,11.10
2022-09-02T23:58:14.896Z,11.20
